Time;durP1;ratioP1;P1;durP2;ratioP2;P2;SDS_P1;SDS_P2;PMS_P1;PMS_P2;Temp;Humidity;BMP_temperature;BMP_pressure;BME280_temperature;BME280_humidity;BME280_pressure;Samples;Min_cycle;Max_cycle;Signal;HPM_P1;HPM_P2
2023/12/02 00:00:44;;;;;;;28.10;14.63;;;;;;;1.27;72.20;99165.63;5223490;23;20101;-77
2023/12/02 00:03:11;;;;;;;28.38;14.68;;;;;;;1.27;72.26;99166.47;5178344;23;20057;-73
2023/12/02 00:05:37;;;;;;;26.15;14.35;;;;;;;1.28;71.86;99167.31;5015525;23;20490;-72
2023/12/02 00:08:04;;;;;;;25.45;14.35;;;;;;;1.27;71.84;99163.03;5011003;28;20149;-75
2023/12/02 00:10:30;;;;;;;26.80;13.70;;;;;;;1.26;71.48;99158.72;5011028;28;20058;-74
2023/12/02 00:12:57;;;;;;;28.33;14.30;;;;;;;1.26;71.53;99161.31;5011034;28;20058;-75
2023/12/02 00:15:24;;;;;;;27.33;14.00;;;;;;;1.23;70.64;99161.41;5012019;28;20156;-75
2023/12/02 00:17:50;;;;;;;27.45;14.85;;;;;;;1.20;71.02;99166.69;5014449;28;20053;-73
2023/12/02 00:20:17;;;;;;;30.15;14.70;;;;;;;1.15;70.71;99171.97;4996550;28;20046;-73
2023/12/02 00:22:44;;;;;;;29.08;15.35;;;;;;;1.11;71.18;99179.00;5014240;28;20498;-75
2023/12/02 00:25:10;;;;;;;28.45;15.25;;;;;;;1.07;71.78;99173.94;5014167;28;20054;-72
2023/12/02 00:27:37;;;;;;;29.15;14.65;;;;;;;1.07;73.12;99179.97;5014387;28;20050;-72
2023/12/02 00:30:04;;;;;;;27.90;14.20;;;;;;;1.08;73.38;99178.25;5014047;28;20529;-74
2023/12/02 00:32:31;;;;;;;28.15;14.35;;;;;;;1.11;74.26;99181.59;5013641;28;20057;-74
2023/12/02 00:34:57;;;;;;;28.42;14.93;;;;;;;1.15;74.49;99174.56;5013884;28;20053;-72
2023/12/02 00:37:24;;;;;;;29.35;14.75;;;;;;;1.19;73.85;99175.38;5013957;28;20141;-76
2023/12/02 00:39:51;;;;;;;28.17;14.75;;;;;;;1.22;73.76;99176.13;5014087;28;20049;-74
2023/12/02 00:42:17;;;;;;;26.92;14.23;;;;;;;1.24;73.84;99163.94;5014057;28;20395;-72
2023/12/02 00:44:44;;;;;;;29.20;14.82;;;;;;;1.28;74.34;99167.31;5013752;28;20057;-73
2023/12/02 00:47:11;;;;;;;28.08;14.38;;;;;;;1.31;74.63;99169.84;5014079;28;20108;-75
2023/12/02 00:49:37;;;;;;;28.58;14.95;;;;;;;1.35;74.36;99168.81;5013880;28;20104;-72
2023/12/02 00:52:04;;;;;;;28.45;13.65;;;;;;;1.37;73.48;99173.97;5014516;28;20058;-75
2023/12/02 00:54:33;;;;;;;25.85;13.50;;;;;;;1.38;73.89;99175.69;5013799;28;20112;-73
2023/12/02 00:57:00;;;;;;;24.27;12.85;;;;;;;1.37;73.07;99174.84;5013768;28;20445;-74
2023/12/02 00:59:27;;;;;;;24.33;12.05;;;;;;;1.36;73.18;99172.28;5013660;28;20049;-74
2023/12/02 01:01:54;;;;;;;26.52;13.27;;;;;;;1.34;72.85;99177.50;4996307;28;20058;-73
2023/12/02 01:04:20;;;;;;;25.48;13.05;;;;;;;1.33;73.87;99170.63;5013576;28;20105;-74
2023/12/02 01:06:47;;;;;;;27.02;13.43;;;;;;;1.33;73.14;99169.75;5013321;28;20448;-74
2023/12/02 01:09:13;;;;;;;23.90;12.48;;;;;;;1.31;72.92;99162.06;5013513;28;20510;-73
2023/12/02 01:11:40;;;;;;;24.15;13.10;;;;;;;1.32;73.46;99165.47;5013465;28;20076;-74
2023/12/02 01:14:07;;;;;;;26.63;12.65;;;;;;;1.32;73.09;99163.75;5013158;28;20046;-73
2023/12/02 01:16:33;;;;;;;25.30;12.80;;;;;;;1.33;73.39;99168.03;5013394;28;20557;-74
2023/12/02 01:19:00;;;;;;;23.65;12.52;;;;;;;1.34;73.06;99168.91;5013336;28;20553;-74
2023/12/02 01:21:26;;;;;;;23.50;12.93;;;;;;;1.32;73.21;99166.34;5013219;28;20045;-72
2023/12/02 01:23:53;;;;;;;24.25;13.15;;;;;;;1.32;73.15;99171.53;5013088;28;20596;-75
2023/12/02 01:26:20;;;;;;;27.58;13.75;;;;;;;1.32;72.98;99170.66;5012392;28;20046;-74
2023/12/02 01:28:47;;;;;;;25.83;12.82;;;;;;;1.30;72.85;99168.13;5013026;28;20041;-73
2023/12/02 01:31:13;;;;;;;22.10;11.98;;;;;;;1.30;72.50;99162.94;5013300;28;20061;-73
2023/12/02 01:36:24;;;;;;;22.33;11.63;;;;;;;1.27;71.74;99178.59;3741788;23;20416;-75
2023/12/02 01:39:31;;;;;;;24.48;11.77;;;;;;;1.21;69.68;99186.53;5106168;23;20428;-72
2023/12/02 01:44:53;;;;;;;28.58;13.18;;;;;;;1.17;72.12;99180.59;5010280;28;20042;-75
2023/12/02 01:47:20;;;;;;;26.92;13.52;;;;;;;1.15;71.61;99182.34;5012666;28;20056;-74
2023/12/02 01:49:48;;;;;;;27.35;13.32;;;;;;;1.09;71.48;99180.81;5012948;28;20108;-75
2023/12/02 01:52:14;;;;;;;29.85;14.93;;;;;;;1.07;71.89;99185.16;5012775;28;20069;-75
2023/12/02 01:54:42;;;;;;;30.73;14.50;;;;;;;1.04;72.00;99178.31;5012292;28;20085;-75
2023/12/02 01:57:10;;;;;;;31.35;15.68;;;;;;;1.04;71.82;99177.47;5012592;28;20578;-74
2023/12/02 01:59:49;;;;;;;35.42;16.60;;;;;;;1.01;71.02;99187.94;5012543;28;20135;-74
2023/12/02 02:02:15;;;;;;;36.30;16.55;;;;;;;1.03;72.46;99188.72;5012676;28;20146;-78
2023/12/02 02:04:42;;;;;;;38.25;15.80;;;;;;;1.04;72.59;99187.84;5012432;28;20062;-73
2023/12/02 02:07:09;;;;;;;35.22;15.80;;;;;;;1.04;72.81;99187.84;5012450;28;20084;-74
2023/12/02 02:09:45;;;;;;;30.48;15.25;;;;;;;1.03;71.20;99191.31;5012437;28;20116;-76
2023/12/02 02:12:12;;;;;;;30.73;15.77;;;;;;;1.05;72.37;99192.16;5012327;28;20395;-74
2023/12/02 02:14:39;;;;;;;32.90;17.05;;;;;;;1.07;72.39;99185.16;5012318;28;20077;-75
2023/12/02 02:17:06;;;;;;;34.60;17.20;;;;;;;1.08;72.36;99189.44;5012471;28;20100;-75
2023/12/02 02:19:32;;;;;;;34.38;17.17;;;;;;;1.09;72.34;99190.31;5012273;28;20562;-75
2023/12/02 02:21:59;;;;;;;37.08;16.50;;;;;;;1.09;71.90;99186.00;5012101;28;20061;-73
2023/12/02 02:24:26;;;;;;;37.38;16.77;;;;;;;1.09;71.92;99191.19;5011966;28;20058;-74
2023/12/02 02:26:52;;;;;;;36.20;17.30;;;;;;;1.10;71.65;99197.19;5012033;28;20049;-74
2023/12/02 02:29:19;;;;;;;36.50;17.58;;;;;;;1.09;72.09;99196.34;5011903;28;20391;-75
2023/12/02 02:31:45;;;;;;;39.65;19.20;;;;;;;1.07;71.78;99187.75;5012305;28;20050;-75
2023/12/02 02:34:12;;;;;;;33.22;17.65;;;;;;;1.06;72.17;99191.25;5011890;28;20052;-75
2023/12/02 02:36:39;;;;;;;38.05;18.27;;;;;;;1.06;72.19;99186.06;5012032;28;20075;-73
2023/12/02 02:39:07;;;;;;;41.15;17.98;;;;;;;1.07;72.03;99192.94;5011604;28;20054;-75
2023/12/02 02:41:34;;;;;;;40.72;17.90;;;;;;;1.09;71.95;99190.31;5011694;28;20050;-73
2023/12/02 02:44:01;;;;;;;39.80;18.30;;;;;;;1.09;72.23;99191.19;5011739;28;20315;-75
2023/12/02 02:46:27;;;;;;;38.50;18.73;;;;;;;1.10;71.56;99192.88;5011622;28;20057;-77
2023/12/02 02:48:54;;;;;;;37.05;18.42;;;;;;;1.10;71.54;99190.28;5011783;28;20054;-74
2023/12/02 02:51:21;;;;;;;37.90;18.42;;;;;;;1.11;71.77;99188.50;5011745;28;20054;-75
2023/12/02 02:53:47;;;;;;;36.53;18.95;;;;;;;1.12;72.06;99193.66;5011426;28;20062;-76
2023/12/02 02:56:14;;;;;;;38.67;18.30;;;;;;;1.11;71.25;99189.38;5011935;28;20068;-74
2023/12/02 02:58:40;;;;;;;38.70;18.08;;;;;;;1.10;71.11;99192.00;5011531;28;20076;-75
2023/12/02 03:01:07;;;;;;;31.95;16.23;;;;;;;1.07;70.34;99192.06;5011608;28;20600;-75
2023/12/02 03:03:34;;;;;;;34.38;16.55;;;;;;;1.02;70.03;99194.81;5011754;28;20054;-76
2023/12/02 03:06:00;;;;;;;35.70;18.33;;;;;;;0.95;69.42;99193.25;4994069;28;20143;-74
2023/12/02 03:08:27;;;;;;;36.03;17.98;;;;;;;0.86;70.01;99194.38;5011320;28;20267;-78
2023/12/02 03:21:19;;;;;;;35.70;17.00;;;;;;;0.67;71.40;99210.38;4521448;26;20054;-74
2023/12/02 03:23:49;;;;;;;32.33;15.30;;;;;;;0.67;71.15;99209.53;5011014;28;20061;-74
2023/12/02 03:26:17;;;;;;;37.92;16.25;;;;;;;0.66;71.92;99213.84;5011139;28;20537;-74
2023/12/02 03:28:43;;;;;;;34.70;17.38;;;;;;;0.66;71.18;99221.63;5010868;28;20046;-74
2023/12/02 03:31:10;;;;;;;33.67;17.02;;;;;;;0.64;71.81;99218.25;5010869;28;20050;-75
2023/12/02 03:33:36;;;;;;;34.85;16.00;;;;;;;0.66;72.05;99218.19;5010714;28;20049;-76
2023/12/02 03:36:03;;;;;;;35.08;17.15;;;;;;;0.64;72.24;99215.66;5010884;28;20050;-74
2023/12/02 03:38:30;;;;;;;36.08;17.15;;;;;;;0.66;72.12;99218.19;5010653;28;20050;-75
2023/12/02 03:40:57;;;;;;;38.67;18.20;;;;;;;0.67;71.85;99218.13;5010908;28;20053;-74
2023/12/02 03:43:24;;;;;;;36.03;18.23;;;;;;;0.69;72.33;99212.94;5010765;28;20131;-75
2023/12/02 03:45:50;;;;;;;37.30;18.10;;;;;;;0.69;71.83;99207.75;5010612;28;20120;-74
2023/12/02 03:48:17;;;;;;;38.88;19.27;;;;;;;0.69;72.31;99210.34;5010684;28;20487;-74
2023/12/02 03:50:43;;;;;;;34.75;17.10;;;;;;;0.69;72.22;99212.94;5012659;28;20065;-75
2023/12/02 03:53:10;;;;;;;39.70;18.65;;;;;;;0.68;72.59;99216.41;5014587;28;20104;-74
2023/12/02 03:55:37;;;;;;;35.60;17.27;;;;;;;0.69;71.85;99218.09;5014316;28;20050;-75
2023/12/02 03:58:03;;;;;;;38.13;18.05;;;;;;;0.70;71.75;99219.81;5014444;28;20116;-75
2023/12/02 04:00:30;;;;;;;37.42;17.40;;;;;;;0.68;71.92;99209.50;5014106;28;20057;-75
2023/12/02 04:02:59;;;;;;;31.55;15.85;;;;;;;0.67;71.81;99212.13;5014064;28;20637;-75
2023/12/02 04:05:26;;;;;;;34.08;16.17;;;;;;;0.65;71.65;99214.75;5014013;28;20061;-74
2023/12/02 04:07:53;;;;;;;33.38;15.88;;;;;;;0.63;71.55;99213.91;5014339;28;20050;-76
2023/12/02 04:10:20;;;;;;;34.33;15.75;;;;;;;0.63;71.90;99221.69;5014119;28;20137;-73
2023/12/02 04:12:46;;;;;;;34.50;15.77;;;;;;;0.61;71.89;99231.25;5014029;28;20136;-74
2023/12/02 04:15:13;;;;;;;30.98;16.13;;;;;;;0.61;72.15;99231.25;4996154;28;20533;-74
2023/12/02 04:17:40;;;;;;;29.88;15.57;;;;;;;0.63;72.03;99235.50;5014182;28;20046;-74
2023/12/02 04:20:08;;;;;;;34.05;15.50;;;;;;;0.63;72.32;99235.50;5013750;28;20054;-74
2023/12/02 04:22:35;;;;;;;35.33;15.40;;;;;;;0.65;72.28;99232.88;5013774;28;20403;-75
2023/12/02 04:25:02;;;;;;;34.70;16.15;;;;;;;0.67;71.81;99231.09;5013694;28;20050;-74
2023/12/02 04:27:29;;;;;;;36.05;18.17;;;;;;;0.68;71.74;99239.72;5013808;28;20046;-74
2023/12/02 04:29:56;;;;;;;33.80;16.63;;;;;;;0.67;71.55;99241.44;5013640;28;20148;-74
2023/12/02 04:32:23;;;;;;;30.50;16.75;;;;;;;0.66;72.00;99244.94;5013825;28;20050;-74
2023/12/02 04:34:50;;;;;;;35.90;16.30;;;;;;;0.65;72.27;99243.25;5013630;28;20092;-74
2023/12/02 04:37:17;;;;;;;32.40;15.30;;;;;;;0.66;71.99;99246.69;5013725;28;20053;-74
2023/12/02 04:39:43;;;;;;;32.45;16.15;;;;;;;0.66;72.02;99249.28;5013623;28;20446;-75
2023/12/02 04:42:10;;;;;;;33.58;15.52;;;;;;;0.68;71.91;99247.50;5013503;28;20074;-74
2023/12/02 04:44:36;;;;;;;34.13;16.63;;;;;;;0.70;72.17;99251.75;5013112;28;20049;-75
2023/12/02 04:47:03;;;;;;;34.95;16.60;;;;;;;0.70;72.05;99251.75;5013525;28;20082;-74
2023/12/02 04:51:58;;;;;;;38.05;17.20;;;;;;;0.72;71.95;99249.13;5128391;23;20049;-73
2023/12/02 04:57:09;;;;;;;37.58;16.80;;;;;;;0.71;71.58;99248.25;4977107;23;20041;-75
2023/12/02 04:59:35;;;;;;;36.35;17.27;;;;;;;0.70;71.79;99245.69;5033651;28;20054;-75
2023/12/02 05:02:03;;;;;;;37.15;16.63;;;;;;;0.68;71.60;99239.72;5033331;28;20049;-73
2023/12/02 05:04:29;;;;;;;40.13;16.95;;;;;;;0.66;71.65;99239.75;5032872;28;20490;-74
2023/12/02 05:06:57;;;;;;;37.53;18.70;;;;;;;0.64;71.77;99242.38;5032743;28;20057;-76
2023/12/02 05:09:23;;;;;;;38.22;17.13;;;;;;;0.63;72.03;99243.28;5032612;28;20053;-75
2023/12/02 05:11:51;;;;;;;35.10;17.48;;;;;;;0.62;71.75;99240.72;5032527;28;20642;-77
2023/12/02 05:14:17;;;;;;;38.10;17.10;;;;;;;0.61;71.67;99242.47;5032609;28;20057;-75
2023/12/02 05:16:44;;;;;;;37.38;17.70;;;;;;;0.59;71.71;99246.84;5032773;28;20049;-74
2023/12/02 05:19:10;;;;;;;40.42;19.48;;;;;;;0.58;71.81;99246.88;5032442;28;20132;-75
2023/12/02 05:21:37;;;;;;;39.55;18.83;;;;;;;0.55;71.24;99244.38;5032746;28;20140;-74
2023/12/02 05:24:04;;;;;;;42.20;19.92;;;;;;;0.54;72.18;99247.81;5032249;28;20054;-75
2023/12/02 05:26:31;;;;;;;42.13;18.88;;;;;;;0.51;71.80;99256.53;5014985;28;20501;-75
2023/12/02 05:29:00;;;;;;;37.50;18.35;;;;;;;0.48;71.70;99249.69;5032497;28;20075;-74
2023/12/02 05:31:27;;;;;;;39.60;18.45;;;;;;;0.48;72.28;99249.69;5032369;28;20061;-75
2023/12/02 05:33:53;;;;;;;40.13;18.08;;;;;;;0.47;71.94;99253.16;5032156;28;20203;-76
2023/12/02 05:36:20;;;;;;;41.13;18.83;;;;;;;0.47;72.25;99244.53;5032228;28;20136;-75
2023/12/02 05:38:47;;;;;;;39.50;18.55;;;;;;;0.48;72.46;99243.63;5032048;28;20053;-75
2023/12/02 05:41:13;;;;;;;37.90;17.48;;;;;;;0.47;72.26;99245.38;5014658;28;20525;-75
2023/12/02 05:43:40;;;;;;;39.85;18.70;;;;;;;0.47;71.85;99247.97;5032072;28;20053;-76
2023/12/02 05:46:07;;;;;;;39.88;18.88;;;;;;;0.46;72.12;99251.47;5031974;28;20103;-75
2023/12/02 05:48:33;;;;;;;43.88;19.65;;;;;;;0.46;71.51;99256.66;5032047;28;20111;-75
2023/12/02 05:51:01;;;;;;;38.53;19.10;;;;;;;0.43;72.00;99255.84;5031823;28;20112;-75
2023/12/02 05:53:30;;;;;;;42.15;19.77;;;;;;;0.40;71.39;99250.75;5032256;28;20049;-75
2023/12/02 05:55:57;;;;;;;43.25;19.52;;;;;;;0.37;71.41;99257.69;5031660;28;20524;-75
2023/12/02 05:58:24;;;;;;;39.72;19.58;;;;;;;0.36;72.35;99257.72;5031882;28;20053;-75
2023/12/02 06:00:51;;;;;;;40.38;18.50;;;;;;;0.33;71.80;99253.47;5031647;28;20046;-76
2023/12/02 06:03:17;;;;;;;41.63;17.98;;;;;;;0.32;72.14;99267.31;5031680;28;20061;-74
2023/12/02 06:05:44;;;;;;;39.70;19.23;;;;;;;0.30;72.13;99271.66;5031730;28;20085;-74
2023/12/02 06:08:11;;;;;;;40.47;19.33;;;;;;;0.31;72.54;99277.69;5031646;28;20096;-74
2023/12/02 06:10:38;;;;;;;42.03;19.80;;;;;;;0.30;72.39;99279.41;5031662;28;20057;-76
2023/12/02 06:13:04;;;;;;;47.17;20.08;;;;;;;0.31;72.22;99275.97;5031344;28;20107;-73
2023/12/02 06:15:31;;;;;;;39.97;19.50;;;;;;;0.33;72.59;99276.78;5031412;28;20049;-73
2023/12/02 06:17:57;;;;;;;38.15;18.73;;;;;;;0.35;72.38;99276.75;5031446;28;20077;-73
2023/12/02 06:20:24;;;;;;;39.63;18.90;;;;;;;0.35;72.37;99277.59;5031260;28;20457;-73
2023/12/02 06:22:51;;;;;;;34.50;17.05;;;;;;;0.36;72.74;99276.72;5031327;28;20133;-72
2023/12/02 06:30:17;;;;;;;39.15;18.77;;;;;;;0.42;72.10;99280.03;5063500;23;20056;-74
2023/12/02 06:32:50;;;;;;;40.63;19.80;;;;;;;0.44;72.63;99281.72;5243054;23;20183;-71
2023/12/02 06:35:16;;;;;;;45.30;20.33;;;;;;;0.44;72.31;99275.69;5031251;28;20137;-73
2023/12/02 06:37:43;;;;;;;44.97;20.38;;;;;;;0.43;71.60;99284.31;5013825;28;20053;-75
2023/12/02 06:40:10;;;;;;;45.13;20.23;;;;;;;0.42;71.78;99282.63;5031168;28;20072;-73
2023/12/02 06:42:37;;;;;;;44.38;20.13;;;;;;;0.40;71.81;99279.25;5031134;28;20049;-69
2023/12/02 06:47:44;;;;;;;44.40;21.30;;;;;;;0.30;71.30;99278.59;5066494;23;20049;-84
2023/12/02 06:50:11;;;;;;;44.60;19.42;;;;;;;0.25;70.95;99274.38;5030857;28;20388;-84
2023/12/02 06:52:37;;;;;;;45.70;21.35;;;;;;;0.19;71.01;99287.44;5030857;28;20072;-83
2023/12/02 06:55:04;;;;;;;44.28;20.90;;;;;;;0.15;71.53;99287.53;5013208;28;20057;-86
2023/12/02 06:57:34;;;;;;;46.95;20.38;;;;;;;0.10;71.69;99290.22;5030768;28;20098;-82
2023/12/02 07:00:01;;;;;;;41.78;19.25;;;;;;;0.06;71.33;99294.63;5030341;28;20067;-81
2023/12/02 07:02:27;;;;;;;42.45;20.42;;;;;;;0.02;70.99;99298.16;5029505;28;20051;-83
2023/12/02 07:04:54;;;;;;;42.60;19.08;;;;;;;-0.01;71.56;99305.97;5029845;28;20576;-84
2023/12/02 07:07:20;;;;;;;39.78;18.83;;;;;;;-0.03;72.15;99306.00;5030171;28;20065;-83
2023/12/02 07:09:47;;;;;;;44.38;19.73;;;;;;;-0.05;71.64;99304.34;5030073;28;20638;-85
2023/12/02 07:12:13;;;;;;;43.20;19.27;;;;;;;-0.04;72.04;99313.81;5029991;28;20049;-81
2023/12/02 07:14:40;;;;;;;44.30;19.40;;;;;;;-0.05;71.73;99314.69;5029894;28;20516;-85
2023/12/02 07:17:06;;;;;;;44.72;20.40;;;;;;;-0.04;72.49;99322.41;5030886;28;20492;-80
2023/12/02 07:19:33;;;;;;;46.58;19.52;;;;;;;-0.02;72.28;99330.16;5030771;28;20057;-84
2023/12/02 07:21:59;;;;;;;41.70;18.55;;;;;;;-0.01;72.46;99331.84;5030724;28;20144;-84
2023/12/02 07:24:26;;;;;;;41.38;18.65;;;;;;;0.00;72.24;99328.41;5030428;28;20059;-82
2023/12/02 07:26:52;;;;;;;39.67;18.55;;;;;;;0.02;72.62;99336.97;5034374;28;20490;-84
2023/12/02 07:29:19;;;;;;;36.95;18.15;;;;;;;0.03;72.80;99338.66;5034489;28;20513;-85
2023/12/02 07:31:45;;;;;;;41.75;18.30;;;;;;;0.05;72.33;99339.50;5034711;28;20049;-85
2023/12/02 07:34:12;;;;;;;42.00;19.90;;;;;;;0.07;72.87;99345.50;5034400;28;20046;-84
2023/12/02 07:36:38;;;;;;;43.00;19.17;;;;;;;0.10;72.71;99345.44;5016995;28;20053;-86
2023/12/02 07:39:05;;;;;;;39.88;19.00;;;;;;;0.13;72.61;99352.28;5034361;28;20457;-81
2023/12/02 07:41:31;;;;;;;39.55;18.25;;;;;;;0.15;72.20;99350.50;5034175;28;20046;-85
2023/12/02 07:43:58;;;;;;;43.30;19.90;;;;;;;0.16;72.56;99349.63;5034057;28;20100;-83
2023/12/02 07:46:24;;;;;;;45.13;19.83;;;;;;;0.20;72.23;99360.78;5034531;28;20052;-82
2023/12/02 07:48:53;;;;;;;39.85;18.80;;;;;;;0.20;72.70;99359.03;5034185;28;20054;-80
2023/12/02 07:51:20;;;;;;;42.08;18.27;;;;;;;0.22;72.42;99359.84;5034191;28;20096;-83
2023/12/02 07:53:46;;;;;;;42.58;19.48;;;;;;;0.23;72.07;99360.72;5033961;28;20104;-83
2023/12/02 07:56:13;;;;;;;39.33;19.05;;;;;;;0.24;72.26;99365.00;5033897;28;20056;-82
2023/12/02 07:58:39;;;;;;;42.25;19.80;;;;;;;0.24;72.32;99365.00;5016636;28;20145;-83
2023/12/02 08:01:06;;;;;;;40.45;19.90;;;;;;;0.25;72.25;99371.88;5034007;28;20080;-82
2023/12/02 08:03:33;;;;;;;40.97;18.35;;;;;;;0.26;72.35;99365.81;5033967;28;20144;-84
2023/12/02 08:06:00;;;;;;;38.28;18.27;;;;;;;0.26;72.39;99360.63;5033742;28;20061;-82
2023/12/02 08:08:27;;;;;;;41.70;19.63;;;;;;;0.28;71.86;99366.63;5016137;28;20049;-83
2023/12/02 08:10:55;;;;;;;43.50;20.25;;;;;;;0.29;72.39;99370.09;5034008;28;20184;-81
2023/12/02 08:13:22;;;;;;;45.00;20.92;;;;;;;0.28;72.14;99369.22;5033939;28;20084;-81
2023/12/02 08:15:49;;;;;;;42.53;19.77;;;;;;;0.29;72.42;99373.50;5033684;28;20140;-83
2023/12/02 08:18:18;;;;;;;44.78;20.23;;;;;;;0.29;72.28;99368.34;5033783;28;20561;-82
2023/12/02 08:20:46;;;;;;;40.60;19.50;;;;;;;0.30;72.45;99370.03;5033450;28;20045;-83
2023/12/02 08:23:13;;;;;;;39.35;18.90;;;;;;;0.31;72.75;99369.19;5033409;28;20140;-86
2023/12/02 08:25:39;;;;;;;38.13;18.48;;;;;;;0.34;72.75;99373.44;5033217;28;20053;-83
2023/12/02 08:28:06;;;;;;;43.63;18.67;;;;;;;0.36;73.01;99377.69;5033402;28;20053;-83
2023/12/02 08:30:32;;;;;;;41.80;19.38;;;;;;;0.39;72.80;99384.53;5015845;28;20103;-82
2023/12/02 08:32:59;;;;;;;41.08;19.42;;;;;;;0.43;73.63;99383.59;5032140;28;20107;-82
2023/12/02 08:35:25;;;;;;;43.72;19.77;;;;;;;0.49;73.26;99390.38;5031552;28;20049;-84
2023/12/02 08:37:52;;;;;;;41.40;19.08;;;;;;;0.52;73.18;99392.88;5031802;28;20517;-83
2023/12/02 08:40:18;;;;;;;37.42;18.02;;;;;;;0.57;73.41;99397.97;5032040;28;20049;-81
2023/12/02 08:42:45;;;;;;;40.30;19.95;;;;;;;0.59;72.57;99404.81;5031694;28;20647;-83
2023/12/02 08:45:12;;;;;;;39.80;19.33;;;;;;;0.62;72.97;99399.59;5031766;28;20152;-82
2023/12/02 08:47:38;;;;;;;41.95;19.23;;;;;;;0.64;72.88;99399.56;5032094;28;20544;-84
2023/12/02 08:50:05;;;;;;;38.55;18.27;;;;;;;0.66;72.98;99402.13;5015204;28;20049;-82
2023/12/02 08:52:32;;;;;;;38.83;19.05;;;;;;;0.68;72.69;99413.28;5032764;28;20133;-84
2023/12/02 08:54:58;;;;;;;37.30;17.88;;;;;;;0.72;72.93;99412.34;5031182;28;20049;-82
2023/12/02 08:57:25;;;;;;;40.60;19.42;;;;;;;0.76;73.70;99404.47;5031282;28;20144;-82
2023/12/02 08:59:51;;;;;;;43.13;19.20;;;;;;;0.81;73.39;99413.84;5031165;28;20119;-83
2023/12/02 09:02:19;;;;;;;42.75;20.17;;;;;;;0.85;73.45;99416.34;5031049;28;20049;-83
2023/12/02 09:04:46;;;;;;;40.90;19.45;;;;;;;0.90;73.46;99418.84;5030750;28;20045;-83
2023/12/02 09:07:12;;;;;;;42.10;19.20;;;;;;;0.94;73.86;99420.50;5031309;28;20053;-84
2023/12/02 09:09:39;;;;;;;45.15;20.73;;;;;;;1.00;73.75;99420.34;5032753;28;20057;-81
2023/12/02 09:12:06;;;;;;;44.10;20.58;;;;;;;1.05;73.37;99422.84;5015145;28;20119;-81
2023/12/02 09:14:33;;;;;;;41.92;20.85;;;;;;;1.09;73.42;99419.28;5032532;28;20132;-80
2023/12/02 09:16:59;;;;;;;43.33;20.75;;;;;;;1.13;73.15;99423.47;5032690;28;20045;-81
2023/12/02 09:19:29;;;;;;;39.50;19.90;;;;;;;1.15;72.67;99419.13;5032430;28;20137;-85
2023/12/02 09:21:55;;;;;;;45.78;20.10;;;;;;;1.19;72.67;99425.09;5032497;28;20504;-82
2023/12/02 09:24:31;;;;;;;43.15;20.42;;;;;;;1.19;71.45;99426.84;5032347;28;20046;-85
2023/12/02 09:26:57;;;;;;;40.10;18.85;;;;;;;1.22;72.85;99432.81;5032434;28;20063;-82
2023/12/02 09:29:33;;;;;;;39.60;19.88;;;;;;;1.22;71.72;99429.34;5032396;28;20068;-82
2023/12/02 09:32:06;;;;;;;43.28;19.58;;;;;;;1.24;72.05;99424.97;5032235;28;20049;-81
2023/12/02 09:34:57;;;;;;;39.33;19.27;;;;;;;1.24;71.09;99427.56;5032402;28;20139;-81
2023/12/02 09:37:47;;;;;;;41.53;19.00;;;;;;;1.26;70.92;99431.84;5032332;28;20056;-83
2023/12/02 09:40:19;;;;;;;37.35;17.67;;;;;;;1.29;72.10;99436.97;5019228;28;20049;-80
2023/12/02 09:43:22;;;;;;;40.63;19.45;;;;;;;1.29;70.65;99442.16;5032013;28;20462;-83
2023/12/02 09:46:19;;;;;;;42.30;19.60;;;;;;;1.31;71.09;99439.53;5025823;28;20132;-82
2023/12/02 09:49:18;;;;;;;41.17;19.38;;;;;;;1.31;70.52;99444.72;4964940;28;20088;-85
2023/12/02 09:52:06;;;;;;;41.00;18.52;;;;;;;1.30;71.16;99442.97;4930709;28;20049;-82
2023/12/02 09:54:58;;;;;;;37.55;18.40;;;;;;;1.30;71.61;99440.38;5031616;28;20045;-84
2023/12/02 09:57:45;;;;;;;38.47;18.75;;;;;;;1.31;71.72;99436.94;5031899;28;20041;-81
2023/12/02 10:00:34;;;;;;;36.85;19.08;;;;;;;1.33;71.89;99431.69;5031704;28;20140;-80
2023/12/02 10:03:23;;;;;;;39.80;18.90;;;;;;;1.36;71.86;99435.06;5031657;28;20092;-80
2023/12/02 10:06:15;;;;;;;43.10;19.27;;;;;;;1.40;72.31;99428.91;5031730;28;20104;-81
2023/12/02 10:09:07;;;;;;;40.80;18.95;;;;;;;1.44;72.11;99437.47;5031709;28;20129;-82
2023/12/02 10:11:50;;;;;;;41.50;18.70;;;;;;;1.48;72.08;99435.63;5013850;28;20414;-83
2023/12/02 10:14:22;;;;;;;40.72;18.65;;;;;;;1.52;72.35;99437.25;5013987;28;20049;-82
2023/12/02 10:16:52;;;;;;;42.35;20.08;;;;;;;1.57;73.91;99432.81;5013971;28;20053;-81
2023/12/02 10:19:39;;;;;;;41.55;20.95;;;;;;;1.60;72.31;99435.34;5013900;28;20049;-83
2023/12/02 10:22:06;;;;;;;40.25;19.58;;;;;;;1.66;73.55;99429.16;5031529;28;20072;-84
2023/12/02 10:24:43;;;;;;;41.15;20.50;;;;;;;1.68;72.55;99427.34;5031217;28;20119;-82
2023/12/02 10:27:15;;;;;;;42.67;19.88;;;;;;;1.72;73.00;99420.34;5031357;28;20087;-83
2023/12/02 10:29:57;;;;;;;44.35;20.80;;;;;;;1.75;72.06;99425.47;5031273;28;20045;-83
2023/12/02 10:32:33;;;;;;;40.50;20.33;;;;;;;1.77;71.79;99429.72;5031131;28;20492;-83
2023/12/02 10:35:16;;;;;;;39.55;19.77;;;;;;;1.78;72.32;99430.56;5031061;28;20490;-83
2023/12/02 10:37:46;;;;;;;38.25;19.02;;;;;;;1.83;73.60;99431.28;5031298;28;20091;-83
2023/12/02 10:40:14;;;;;;;39.85;19.80;;;;;;;1.84;72.81;99433.00;5030995;28;20100;-80
2023/12/02 10:43:04;;;;;;;45.83;21.05;;;;;;;1.81;70.76;99422.72;5031017;28;20078;-82
2023/12/02 10:45:31;;;;;;;40.03;19.83;;;;;;;1.85;72.84;99421.75;5030953;28;20132;-86
2023/12/02 10:47:59;;;;;;;41.80;20.52;;;;;;;1.84;72.60;99419.19;5031069;28;20132;-80
2023/12/02 10:50:27;;;;;;;40.72;20.38;;;;;;;1.85;73.24;99428.66;5030917;28;20131;-79
2023/12/02 10:53:04;;;;;;;41.35;20.30;;;;;;;1.84;72.11;99422.63;5013263;28;20140;-84
2023/12/02 10:55:33;;;;;;;36.65;18.65;;;;;;;1.90;73.56;99431.97;5030846;28;20057;-80
2023/12/02 10:58:04;;;;;;;41.60;20.80;;;;;;;1.90;72.36;99432.84;5013324;28;20081;-83
2023/12/02 11:00:33;;;;;;;38.17;19.30;;;;;;;1.92;72.45;99427.63;5030726;28;20096;-81
2023/12/02 11:03:32;;;;;;;41.17;19.80;;;;;;;1.92;71.66;99436.25;5030423;28;20049;-80
2023/12/02 11:06:12;;;;;;;39.95;19.13;;;;;;;1.93;72.05;99427.56;5030907;28;20049;-82
2023/12/02 11:08:48;;;;;;;37.00;19.00;;;;;;;1.95;72.52;99436.16;5030837;28;20056;-81
2023/12/02 11:11:27;;;;;;;35.30;19.38;;;;;;;2.00;72.32;99432.59;5013161;28;20097;-83
2023/12/02 11:13:57;;;;;;;43.60;21.20;;;;;;;2.04;73.84;99431.63;5030505;28;20057;-83
2023/12/02 11:16:41;;;;;;;39.05;19.23;;;;;;;2.05;72.51;99435.91;5030904;28;20079;-82
2023/12/02 11:19:16;;;;;;;37.22;19.58;;;;;;;2.10;72.23;99428.00;5030809;28;20049;-82
2023/12/02 11:21:52;;;;;;;37.85;19.75;;;;;;;2.13;72.00;99425.34;5030562;28;20060;-84
2023/12/02 11:24:33;;;;;;;42.75;20.77;;;;;;;2.15;72.69;99424.41;5030059;28;20107;-84
2023/12/02 11:27:09;;;;;;;38.53;19.70;;;;;;;2.18;73.48;99437.31;5030406;28;20494;-81
2023/12/02 11:29:54;;;;;;;38.38;19.17;;;;;;;2.17;71.70;99439.94;5030580;28;20050;-82
2023/12/02 11:32:38;;;;;;;39.55;20.45;;;;;;;2.20;71.89;99432.91;5030249;28;20057;-80
2023/12/02 11:35:33;;;;;;;39.03;19.60;;;;;;;2.19;70.29;99428.63;5030571;28;20049;-84
2023/12/02 11:38:10;;;;;;;41.97;20.38;;;;;;;2.20;71.12;99424.25;5030484;28;20061;-83
2023/12/02 11:40:48;;;;;;;38.28;19.63;;;;;;;2.21;72.85;99424.22;5030446;28;20507;-84
2023/12/02 11:43:33;;;;;;;40.80;20.85;;;;;;;2.19;71.42;99432.94;5030277;28;20054;-83
2023/12/02 11:46:07;;;;;;;40.88;19.85;;;;;;;2.20;72.13;99426.84;5030212;28;20049;-84
2023/12/02 11:48:54;;;;;;;38.85;18.75;;;;;;;2.21;72.22;99428.56;5030326;28;20049;-84
2023/12/02 11:51:52;;;;;;;41.67;20.77;;;;;;;2.19;71.24;99428.63;5030138;28;20046;-82
2023/12/02 11:54:28;;;;;;;36.28;18.65;;;;;;;2.21;72.34;99434.59;5030125;28;20053;-83
2023/12/02 11:57:19;;;;;;;38.35;19.73;;;;;;;2.20;71.14;99435.50;5030327;28;20057;-80
2023/12/02 12:00:18;;;;;;;40.38;18.85;;;;;;;2.20;71.51;99432.91;5030031;28;20105;-84
2023/12/02 12:03:09;;;;;;;37.70;19.40;;;;;;;2.22;72.02;99441.50;5030074;28;20046;-85
2023/12/02 12:06:03;;;;;;;42.03;19.58;;;;;;;2.22;71.72;99445.84;5029909;28;20108;-84